createdAt,value
2023-05-10T00:00:46.450Z,12.7
2023-05-10T00:20:46.714Z,12.7
2023-05-10T00:40:48.785Z,12.6
2023-05-10T01:00:47.114Z,12.4
2023-05-10T01:20:49.734Z,12.3
2023-05-10T01:40:48.996Z,12.2
2023-05-10T02:00:47.596Z,12.1
2023-05-10T02:20:46.806Z,12
2023-05-10T02:40:48.146Z,12.2
2023-05-10T03:00:47.830Z,12.3
2023-05-10T03:20:47.514Z,11.6
2023-05-10T03:40:47.168Z,11.5
2023-05-10T04:00:49.855Z,11.5
2023-05-10T04:21:07.151Z,11.5
2023-05-10T04:40:47.846Z,11.5
2023-05-10T05:01:12.803Z,11.3
2023-05-10T05:21:10.302Z,11.3
2023-05-10T05:41:12.584Z,11
2023-05-10T06:01:13.213Z,11
2023-05-10T06:21:15.008Z,11.2
2023-05-10T06:41:16.124Z,11.2
2023-05-10T07:01:08.876Z,11.6
2023-05-10T07:21:10.524Z,12
2023-05-10T07:41:06.673Z,11.9
2023-05-10T08:01:10.276Z,12.2
2023-05-10T08:21:09.668Z,12.2
2023-05-10T08:41:15.057Z,12.2
2023-05-10T09:01:07.994Z,12.2
2023-05-10T09:21:07.026Z,12.1
2023-05-10T09:41:07.157Z,12.7
2023-05-10T10:01:05.145Z,12.9
2023-05-10T10:21:06.784Z,12.9
2023-05-10T10:41:12.623Z,13.2
2023-05-10T11:01:07.915Z,13.5
2023-05-10T11:21:07.947Z,13.7
2023-05-10T11:41:06.983Z,14
2023-05-10T12:01:16.517Z,14.3
2023-05-10T12:21:15.694Z,14.7
2023-05-10T12:41:06.582Z,14.7
2023-05-10T13:01:13.474Z,15.5
2023-05-10T13:21:09.068Z,14.2
2023-05-10T13:41:12.864Z,13.7
2023-05-10T14:01:12.898Z,14.1
2023-05-10T14:21:10.546Z,14.7
2023-05-10T14:41:10.610Z,14.7
2023-05-10T15:01:08.391Z,15.2
2023-05-10T15:21:08.444Z,14.8
2023-05-10T15:41:07.302Z,14.5
2023-05-10T16:01:08.513Z,14
2023-05-10T16:21:08.830Z,14.6
2023-05-10T16:41:11.862Z,16
2023-05-10T17:01:09.473Z,16.2
2023-05-10T17:21:08.318Z,16.2
2023-05-10T17:41:07.525Z,15.6
2023-05-10T18:01:08.309Z,14.7
2023-05-10T18:21:07.165Z,14.6
2023-05-10T18:41:14.070Z,13.8
2023-05-10T19:00:46.645Z,13.8
2023-05-10T19:20:54.009Z,13
2023-05-10T19:40:48.778Z,12.6
2023-05-10T20:00:47.756Z,12.3
2023-05-10T20:20:50.395Z,11.8
2023-05-10T20:40:50.991Z,11.8
2023-05-10T21:00:48.420Z,11.8
2023-05-10T21:20:47.079Z,11.6
2023-05-10T21:40:46.439Z,11.4
2023-05-10T22:00:58.151Z,11.3
2023-05-10T22:20:47.760Z,11.3
2023-05-10T22:40:45.874Z,11.3
2023-05-10T23:00:47.152Z,11.3
2023-05-10T23:20:47.899Z,11.3
2023-05-10T23:40:46.872Z,11.1
